sensor_id;sensor_type;location;lat;lon;timestamp;pressure;altitude;pressure_sealevel;temperature;humidity
74921;BME280;63483;47.384;8.860;2024-02-14T00:00:33;95112.03;;;1.53;48.47
74921;BME280;63483;47.384;8.860;2024-02-14T00:02:59;95111.94;;;1.55;48.92
74921;BME280;63483;47.384;8.860;2024-02-14T00:05:24;95108.41;;;1.56;48.44
74921;BME280;63483;47.384;8.860;2024-02-14T00:07:50;95103.84;;;1.59;47.96
74921;BME280;63483;47.384;8.860;2024-02-14T00:10:15;95108.78;;;1.63;48.47
74921;BME280;63483;47.384;8.860;2024-02-14T00:12:40;95110.44;;;1.64;48.10
74921;BME280;63483;47.384;8.860;2024-02-14T00:15:06;95112.09;;;1.65;48.66
74921;BME280;63483;47.384;8.860;2024-02-14T00:17:33;95114.78;;;1.63;48.17
74921;BME280;63483;47.384;8.860;2024-02-14T00:19:59;95120.75;;;1.64;48.54
74921;BME280;63483;47.384;8.860;2024-02-14T00:22:25;95125.94;;;1.64;48.45
74921;BME280;63483;47.384;8.860;2024-02-14T00:24:50;95113.72;;;1.66;48.48
74921;BME280;63483;47.384;8.860;2024-02-14T00:27:15;95115.38;;;1.67;48.76
74921;BME280;63483;47.384;8.860;2024-02-14T00:29:42;95114.91;;;1.73;48.43
74921;BME280;63483;47.384;8.860;2024-02-14T00:32:10;95112.22;;;1.74;48.51
74921;BME280;63483;47.384;8.860;2024-02-14T00:34:35;95123.59;;;1.72;48.48
74921;BME280;63483;47.384;8.860;2024-02-14T00:37:00;95127.78;;;1.61;48.29
74921;BME280;63483;47.384;8.860;2024-02-14T00:39:26;95117.44;;;1.61;48.53
74921;BME280;63483;47.384;8.860;2024-02-14T00:41:51;95127.78;;;1.61;48.65
74921;BME280;63483;47.384;8.860;2024-02-14T00:44:18;95126.63;;;1.41;49.18
74921;BME280;63483;47.384;8.860;2024-02-14T00:46:44;95130.81;;;1.55;49.03
74921;BME280;63483;47.384;8.860;2024-02-14T00:49:10;95122.63;;;1.61;49.04
74921;BME280;63483;47.384;8.860;2024-02-14T00:51:36;95127.59;;;1.65;49.23
74921;BME280;63483;47.384;8.860;2024-02-14T00:54:05;95130.06;;;1.66;49.29
74921;BME280;63483;47.384;8.860;2024-02-14T00:56:31;95136.03;;;1.67;48.48
74921;BME280;63483;47.384;8.860;2024-02-14T00:58:56;95132.75;;;1.65;48.86
74921;BME280;63483;47.384;8.860;2024-02-14T01:01:22;95142.00;;;1.67;49.09
74921;BME280;63483;47.384;8.860;2024-02-14T01:03:47;95137.47;;;1.71;48.77
74921;BME280;63483;47.384;8.860;2024-02-14T01:06:12;95141.66;;;1.72;48.74
74921;BME280;63483;47.384;8.860;2024-02-14T01:08:39;95146.50;;;1.76;48.74
74921;BME280;63483;47.384;8.860;2024-02-14T01:11:05;95144.63;;;1.78;48.53
74921;BME280;63483;47.384;8.860;2024-02-14T01:13:30;95152.25;;;1.80;48.32
74921;BME280;63483;47.384;8.860;2024-02-14T01:15:55;95148.75;;;1.81;48.30
74921;BME280;63483;47.384;8.860;2024-02-14T01:18:20;95153.91;;;1.81;48.34
74921;BME280;63483;47.384;8.860;2024-02-14T01:20:46;95155.31;;;1.85;48.18
74921;BME280;63483;47.384;8.860;2024-02-14T01:23:11;95164.63;;;1.88;48.55
74921;BME280;63483;47.384;8.860;2024-02-14T01:25:36;95163.56;;;1.90;48.14
74921;BME280;63483;47.384;8.860;2024-02-14T01:28:02;95154.66;;;1.94;48.42
74921;BME280;63483;47.384;8.860;2024-02-14T01:30:27;95164.75;;;1.98;48.40
74921;BME280;63483;47.384;8.860;2024-02-14T01:32:53;95159.13;;;2.04;47.98
74921;BME280;63483;47.384;8.860;2024-02-14T01:35:18;95161.50;;;2.07;47.82
74921;BME280;63483;47.384;8.860;2024-02-14T01:37:44;95158.44;;;2.13;47.46
74921;BME280;63483;47.384;8.860;2024-02-14T01:40:10;95165.59;;;2.21;47.53
74921;BME280;63483;47.384;8.860;2024-02-14T01:42:36;95159.41;;;2.23;47.45
74921;BME280;63483;47.384;8.860;2024-02-14T01:45:01;95160.81;;;2.27;47.41
74921;BME280;63483;47.384;8.860;2024-02-14T01:47:28;95160.34;;;2.34;47.53
74921;BME280;63483;47.384;8.860;2024-02-14T01:49:54;95154.00;;;2.38;47.15
74921;BME280;63483;47.384;8.860;2024-02-14T01:52:19;95151.88;;;2.43;47.23
74921;BME280;63483;47.384;8.860;2024-02-14T01:54:47;95151.78;;;2.44;47.03
74921;BME280;63483;47.384;8.860;2024-02-14T01:57:12;95157.53;;;2.48;47.00
74921;BME280;63483;47.384;8.860;2024-02-14T01:59:38;95156.38;;;2.52;46.80
74921;BME280;63483;47.384;8.860;2024-02-14T02:02:04;95150.97;;;2.55;47.21
74921;BME280;63483;47.384;8.860;2024-02-14T02:04:33;95158.00;;;2.53;46.64
74921;BME280;63483;47.384;8.860;2024-02-14T02:06:59;95156.03;;;2.57;46.66
74921;BME280;63483;47.384;8.860;2024-02-14T02:09:25;95149.81;;;2.59;46.62
74921;BME280;63483;47.384;8.860;2024-02-14T02:11:51;95146.38;;;2.59;46.61
74921;BME280;63483;47.384;8.860;2024-02-14T02:14:19;95144.63;;;2.59;46.79
74921;BME280;63483;47.384;8.860;2024-02-14T02:16:45;95143.66;;;2.60;46.52
74921;BME280;63483;47.384;8.860;2024-02-14T02:19:11;95147.22;;;2.59;46.75
74921;BME280;63483;47.384;8.860;2024-02-14T02:21:37;95147.91;;;2.61;46.65
74921;BME280;63483;47.384;8.860;2024-02-14T02:24:02;95150.63;;;2.60;46.85
74921;BME280;63483;47.384;8.860;2024-02-14T02:26:28;95142.03;;;2.59;46.60
74921;BME280;63483;47.384;8.860;2024-02-14T02:28:53;95135.91;;;2.60;46.81
74921;BME280;63483;47.384;8.860;2024-02-14T02:31:19;95129.13;;;2.59;46.66
74921;BME280;63483;47.384;8.860;2024-02-14T02:33:45;95124.03;;;1.66;44.63
74921;BME280;63483;47.384;8.860;2024-02-14T02:36:11;95133.09;;;0.74;43.32
74921;BME280;63483;47.384;8.860;2024-02-14T02:38:36;95125.72;;;0.44;45.08
74921;BME280;63483;47.384;8.860;2024-02-14T02:41:02;95125.44;;;-0.16;44.11
74921;BME280;63483;47.384;8.860;2024-02-14T02:43:29;95124.31;;;-0.64;45.03
74921;BME280;63483;47.384;8.860;2024-02-14T02:45:55;95130.06;;;-1.01;46.20
74921;BME280;63483;47.384;8.860;2024-02-14T02:48:22;95131.72;;;-1.00;47.25
74921;BME280;63483;47.384;8.860;2024-02-14T02:50:49;95128.38;;;-0.88;48.72
74921;BME280;63483;47.384;8.860;2024-02-14T02:53:15;95126.59;;;-1.29;46.56
74921;BME280;63483;47.384;8.860;2024-02-14T02:55:40;95126.47;;;-1.55;46.65
74921;BME280;63483;47.384;8.860;2024-02-14T02:58:06;95135.66;;;-1.65;47.18
74921;BME280;63483;47.384;8.860;2024-02-14T03:00:32;95125.00;;;-1.17;54.79
74921;BME280;63483;47.384;8.860;2024-02-14T03:02:57;95131.41;;;-1.51;52.34
74921;BME280;63483;47.384;8.860;2024-02-14T03:05:23;95126.00;;;-1.47;51.31
74921;BME280;63483;47.384;8.860;2024-02-14T03:07:49;95132.38;;;-1.67;48.95
74921;BME280;63483;47.384;8.860;2024-02-14T03:10:16;95128.88;;;-1.95;49.12
74921;BME280;63483;47.384;8.860;2024-02-14T03:12:47;95123.00;;;-1.97;49.98
74921;BME280;63483;47.384;8.860;2024-02-14T03:15:13;95120.03;;;-2.19;48.58
74921;BME280;63483;47.384;8.860;2024-02-14T03:17:39;95127.66;;;-2.32;48.91
74921;BME280;63483;47.384;8.860;2024-02-14T03:20:04;95129.19;;;-2.30;49.17
74921;BME280;63483;47.384;8.860;2024-02-14T03:22:37;95143.63;;;-2.43;49.02
74921;BME280;63483;47.384;8.860;2024-02-14T03:25:03;95136.50;;;-2.38;48.86
74921;BME280;63483;47.384;8.860;2024-02-14T03:27:28;95134.97;;;-2.26;49.81
74921;BME280;63483;47.384;8.860;2024-02-14T03:29:56;95138.63;;;-2.30;48.54
74921;BME280;63483;47.384;8.860;2024-02-14T03:32:23;95144.75;;;-2.33;48.81
74921;BME280;63483;47.384;8.860;2024-02-14T03:34:48;95138.69;;;-2.46;48.09
74921;BME280;63483;47.384;8.860;2024-02-14T03:37:14;95139.66;;;-2.49;48.63
74921;BME280;63483;47.384;8.860;2024-02-14T03:39:39;95143.00;;;-2.47;48.34
74921;BME280;63483;47.384;8.860;2024-02-14T03:42:05;95140.16;;;-2.42;47.76
74921;BME280;63483;47.384;8.860;2024-02-14T03:44:33;95150.59;;;-2.45;47.78
74921;BME280;63483;47.384;8.860;2024-02-14T03:46:58;95143.84;;;-2.32;48.12
74921;BME280;63483;47.384;8.860;2024-02-14T03:49:24;95140.75;;;-2.22;47.11
74921;BME280;63483;47.384;8.860;2024-02-14T03:51:51;95149.88;;;-2.02;48.42
74921;BME280;63483;47.384;8.860;2024-02-14T03:54:20;95145.38;;;-1.84;46.37
74921;BME280;63483;47.384;8.860;2024-02-14T03:56:45;95154.53;;;-1.66;45.35
74921;BME280;63483;47.384;8.860;2024-02-14T03:59:10;95156.00;;;-1.62;44.26
74921;BME280;63483;47.384;8.860;2024-02-14T04:01:36;95151.22;;;-1.39;47.14
74921;BME280;63483;47.384;8.860;2024-02-14T04:04:01;95153.03;;;-1.12;47.46
74921;BME280;63483;47.384;8.860;2024-02-14T04:06:27;95153.16;;;-0.87;47.97
74921;BME280;63483;47.384;8.860;2024-02-14T04:08:52;95161.81;;;-0.60;49.24
74921;BME280;63483;47.384;8.860;2024-02-14T04:11:17;95170.19;;;-0.31;51.37
74921;BME280;63483;47.384;8.860;2024-02-14T04:13:43;95171.16;;;-0.06;52.04
74921;BME280;63483;47.384;8.860;2024-02-14T04:16:08;95168.00;;;0.16;52.38
74921;BME280;63483;47.384;8.860;2024-02-14T04:18:33;95162.44;;;0.35;51.21
74921;BME280;63483;47.384;8.860;2024-02-14T04:20:59;95160.44;;;0.51;51.19
74921;BME280;63483;47.384;8.860;2024-02-14T04:23:24;95157.66;;;0.54;50.34
74921;BME280;63483;47.384;8.860;2024-02-14T04:25:50;95160.94;;;0.69;50.93
74921;BME280;63483;47.384;8.860;2024-02-14T04:28:15;95159.25;;;0.81;50.73
74921;BME280;63483;47.384;8.860;2024-02-14T04:30:41;95160.28;;;0.91;50.41
74921;BME280;63483;47.384;8.860;2024-02-14T04:33:07;95153.75;;;0.99;50.14
74921;BME280;63483;47.384;8.860;2024-02-14T04:35:33;95149.69;;;1.07;49.84
74921;BME280;63483;47.384;8.860;2024-02-14T04:37:59;95165.56;;;1.14;49.87
74921;BME280;63483;47.384;8.860;2024-02-14T04:40:24;95154.09;;;1.18;50.31
74921;BME280;63483;47.384;8.860;2024-02-14T04:42:49;95161.50;;;1.23;49.47
74921;BME280;63483;47.384;8.860;2024-02-14T04:45:15;95151.91;;;1.25;49.54
74921;BME280;63483;47.384;8.860;2024-02-14T04:47:40;95159.53;;;1.26;50.44
74921;BME280;63483;47.384;8.860;2024-02-14T04:50:06;95159.31;;;1.30;49.40
74921;BME280;63483;47.384;8.860;2024-02-14T04:52:32;95152.28;;;1.32;49.96
74921;BME280;63483;47.384;8.860;2024-02-14T04:54:57;95152.06;;;1.35;49.33
74921;BME280;63483;47.384;8.860;2024-02-14T04:57:23;95152.69;;;1.38;49.74
74921;BME280;63483;47.384;8.860;2024-02-14T04:59:48;95151.69;;;1.28;49.70
74921;BME280;63483;47.384;8.860;2024-02-14T05:02:13;95165.91;;;1.34;49.39
74921;BME280;63483;47.384;8.860;2024-02-14T05:04:39;95164.97;;;1.35;49.08
74921;BME280;63483;47.384;8.860;2024-02-14T05:07:05;95172.47;;;1.38;48.86
74921;BME280;63483;47.384;8.860;2024-02-14T05:09:30;95178.38;;;1.40;49.03
74921;BME280;63483;47.384;8.860;2024-02-14T05:11:56;95180.97;;;1.40;49.51
74921;BME280;63483;47.384;8.860;2024-02-14T05:14:21;95191.28;;;1.40;48.84
74921;BME280;63483;47.384;8.860;2024-02-14T05:16:46;95177.63;;;1.38;49.05
74921;BME280;63483;47.384;8.860;2024-02-14T05:19:12;95179.31;;;1.39;48.97
74921;BME280;63483;47.384;8.860;2024-02-14T05:21:38;95187.78;;;1.41;49.22
74921;BME280;63483;47.384;8.860;2024-02-14T05:24:03;95182.41;;;1.44;48.95
74921;BME280;63483;47.384;8.860;2024-02-14T05:26:29;95184.91;;;1.33;49.12
74921;BME280;63483;47.384;8.860;2024-02-14T05:28:54;95193.25;;;1.36;49.83
74921;BME280;63483;47.384;8.860;2024-02-14T05:31:20;95199.03;;;1.40;49.75
74921;BME280;63483;47.384;8.860;2024-02-14T05:33:45;95203.88;;;1.44;49.88
74921;BME280;63483;47.384;8.860;2024-02-14T05:36:10;95208.00;;;1.47;49.79
74921;BME280;63483;47.384;8.860;2024-02-14T05:38:36;95217.19;;;1.51;49.69
74921;BME280;63483;47.384;8.860;2024-02-14T05:41:01;95213.31;;;1.57;49.62
74921;BME280;63483;47.384;8.860;2024-02-14T05:43:26;95203.72;;;1.59;49.40
74921;BME280;63483;47.384;8.860;2024-02-14T05:45:52;95213.94;;;1.60;49.13
74921;BME280;63483;47.384;8.860;2024-02-14T05:48:17;95205.25;;;1.61;49.77
74921;BME280;63483;47.384;8.860;2024-02-14T05:50:42;95206.78;;;1.64;49.05
74921;BME280;63483;47.384;8.860;2024-02-14T05:53:07;95203.97;;;1.67;49.23
74921;BME280;63483;47.384;8.860;2024-02-14T05:55:33;95198.72;;;1.69;49.51
74921;BME280;63483;47.384;8.860;2024-02-14T05:58:00;95204.50;;;1.72;49.01
74921;BME280;63483;47.384;8.860;2024-02-14T06:00:25;95213.97;;;1.72;49.19
74921;BME280;63483;47.384;8.860;2024-02-14T06:02:51;95211.28;;;1.73;48.96
74921;BME280;63483;47.384;8.860;2024-02-14T06:05:17;95211.19;;;1.75;48.94
74921;BME280;63483;47.384;8.860;2024-02-14T06:07:42;95199.22;;;1.74;49.08
74921;BME280;63483;47.384;8.860;2024-02-14T06:10:10;95199.22;;;1.74;49.31
74921;BME280;63483;47.384;8.860;2024-02-14T06:12:35;95193.13;;;1.75;49.13
74921;BME280;63483;47.384;8.860;2024-02-14T06:15:01;95187.84;;;1.76;49.25
74921;BME280;63483;47.384;8.860;2024-02-14T06:17:27;95194.63;;;1.77;48.60
74921;BME280;63483;47.384;8.860;2024-02-14T06:19:53;95216.13;;;1.78;48.74
74921;BME280;63483;47.384;8.860;2024-02-14T06:22:18;95206.50;;;1.80;49.14
74921;BME280;63483;47.384;8.860;2024-02-14T06:24:43;95204.38;;;1.74;48.85
74921;BME280;63483;47.384;8.860;2024-02-14T06:27:09;95219.25;;;1.70;49.24
74921;BME280;63483;47.384;8.860;2024-02-14T06:29:34;95226.31;;;1.44;50.01
74921;BME280;63483;47.384;8.860;2024-02-14T06:32:00;95221.41;;;0.52;45.91
74921;BME280;63483;47.384;8.860;2024-02-14T06:34:25;95227.53;;;-0.15;46.16
74921;BME280;63483;47.384;8.860;2024-02-14T06:36:52;95229.00;;;-0.65;46.91
74921;BME280;63483;47.384;8.860;2024-02-14T06:39:18;95227.16;;;-0.63;47.47
74921;BME280;63483;47.384;8.860;2024-02-14T06:41:43;95233.66;;;-0.99;47.63
74921;BME280;63483;47.384;8.860;2024-02-14T06:44:10;95240.44;;;-1.41;48.03
74921;BME280;63483;47.384;8.860;2024-02-14T06:46:35;95244.84;;;-1.58;47.61
74921;BME280;63483;47.384;8.860;2024-02-14T06:49:03;95242.97;;;-1.84;48.20
74921;BME280;63483;47.384;8.860;2024-02-14T06:51:28;95254.50;;;-1.92;48.04
74921;BME280;63483;47.384;8.860;2024-02-14T06:53:55;95254.28;;;-2.03;47.24
74921;BME280;63483;47.384;8.860;2024-02-14T06:56:20;95257.38;;;-2.12;48.22
74921;BME280;63483;47.384;8.860;2024-02-14T06:58:45;95253.50;;;-2.19;48.39
74921;BME280;63483;47.384;8.860;2024-02-14T07:01:11;95255.88;;;-1.86;49.62
74921;BME280;63483;47.384;8.860;2024-02-14T07:03:38;95252.88;;;-1.78;48.61
74921;BME280;63483;47.384;8.860;2024-02-14T07:06:05;95251.03;;;-1.91;47.09
74921;BME280;63483;47.384;8.860;2024-02-14T07:08:31;95257.59;;;-2.01;48.05
74921;BME280;63483;47.384;8.860;2024-02-14T07:10:56;95258.41;;;-2.00;47.78
74921;BME280;63483;47.384;8.860;2024-02-14T07:13:21;95251.63;;;-2.01;47.12
74921;BME280;63483;47.384;8.860;2024-02-14T07:15:47;95249.84;;;-1.85;47.62
74921;BME280;63483;47.384;8.860;2024-02-14T07:18:12;95238.22;;;-1.62;46.10
74921;BME280;63483;47.384;8.860;2024-02-14T07:20:37;95250.72;;;-1.41;47.63
74921;BME280;63483;47.384;8.860;2024-02-14T07:23:03;95258.25;;;-1.24;51.02
74921;BME280;63483;47.384;8.860;2024-02-14T07:25:29;95256.78;;;-1.28;60.73
74921;BME280;63483;47.384;8.860;2024-02-14T07:27:54;95254.00;;;-1.68;55.18
74921;BME280;63483;47.384;8.860;2024-02-14T07:30:20;95248.66;;;-1.79;52.88
74921;BME280;63483;47.384;8.860;2024-02-14T07:32:45;95246.47;;;-2.16;51.27
74921;BME280;63483;47.384;8.860;2024-02-14T07:35:11;95241.81;;;-2.25;52.32
74921;BME280;63483;47.384;8.860;2024-02-14T07:37:36;95245.44;;;-2.44;52.59
74921;BME280;63483;47.384;8.860;2024-02-14T07:40:02;95246.59;;;-2.49;52.14
74921;BME280;63483;47.384;8.860;2024-02-14T07:42:28;95239.34;;;-2.27;52.74
74921;BME280;63483;47.384;8.860;2024-02-14T07:44:53;95245.00;;;-2.36;52.74
74921;BME280;63483;47.384;8.860;2024-02-14T07:47:19;95242.09;;;-2.30;51.82
74921;BME280;63483;47.384;8.860;2024-02-14T07:49:44;95240.38;;;-2.29;52.26
74921;BME280;63483;47.384;8.860;2024-02-14T07:52:09;95224.88;;;-2.28;52.72
74921;BME280;63483;47.384;8.860;2024-02-14T07:54:35;95224.13;;;-2.30;51.90
74921;BME280;63483;47.384;8.860;2024-02-14T07:57:00;95223.22;;;-2.29;50.77
74921;BME280;63483;47.384;8.860;2024-02-14T07:59:26;95231.31;;;-2.20;51.50
74921;BME280;63483;47.384;8.860;2024-02-14T08:01:52;95221.28;;;-1.95;52.17
74921;BME280;63483;47.384;8.860;2024-02-14T08:04:17;95217.81;;;-1.79;50.96
74921;BME280;63483;47.384;8.860;2024-02-14T08:06:45;95216.91;;;-1.78;51.09
74921;BME280;63483;47.384;8.860;2024-02-14T08:09:11;95210.31;;;-1.68;50.48
74921;BME280;63483;47.384;8.860;2024-02-14T08:11:36;95214.34;;;-1.49;48.99
74921;BME280;63483;47.384;8.860;2024-02-14T08:14:02;95217.88;;;-1.36;49.02
74921;BME280;63483;47.384;8.860;2024-02-14T08:16:27;95213.06;;;-1.13;47.58
74921;BME280;63483;47.384;8.860;2024-02-14T08:18:52;95209.09;;;-0.90;48.07
74921;BME280;63483;47.384;8.860;2024-02-14T08:21:24;95209.09;;;-0.48;51.53
74921;BME280;63483;47.384;8.860;2024-02-14T08:23:51;95213.25;;;-0.33;50.97
74921;BME280;63483;47.384;8.860;2024-02-14T08:26:16;95214.75;;;-0.43;61.84
74921;BME280;63483;47.384;8.860;2024-02-14T08:28:42;95202.94;;;-0.88;54.68
74921;BME280;63483;47.384;8.860;2024-02-14T08:31:11;95208.13;;;-1.16;52.65
74921;BME280;63483;47.384;8.860;2024-02-14T08:33:37;95219.38;;;-0.90;53.83
74921;BME280;63483;47.384;8.860;2024-02-14T08:36:03;95221.94;;;-0.76;52.21
74921;BME280;63483;47.384;8.860;2024-02-14T08:38:28;95219.34;;;-1.03;49.88
74921;BME280;63483;47.384;8.860;2024-02-14T08:40:54;95221.13;;;-1.05;51.67
74921;BME280;63483;47.384;8.860;2024-02-14T08:43:19;95213.78;;;-1.26;52.09
74921;BME280;63483;47.384;8.860;2024-02-14T08:45:45;95226.22;;;-1.32;52.34
74921;BME280;63483;47.384;8.860;2024-02-14T08:48:10;95217.13;;;-1.38;52.18
74921;BME280;63483;47.384;8.860;2024-02-14T08:50:35;95217.03;;;-1.08;54.34
74921;BME280;63483;47.384;8.860;2024-02-14T08:53:01;95227.38;;;-0.95;53.81
74921;BME280;63483;47.384;8.860;2024-02-14T08:55:26;95225.25;;;-0.06;54.51
74921;BME280;63483;47.384;8.860;2024-02-14T08:57:52;95217.06;;;0.53;54.25
74921;BME280;63483;47.384;8.860;2024-02-14T09:00:17;95221.53;;;1.01;53.54
74921;BME280;63483;47.384;8.860;2024-02-14T09:02:47;95221.34;;;1.41;53.29
74921;BME280;63483;47.384;8.860;2024-02-14T09:05:13;95225.97;;;1.73;53.22
74921;BME280;63483;47.384;8.860;2024-02-14T09:07:38;95224.66;;;2.03;52.35
74921;BME280;63483;47.384;8.860;2024-02-14T09:10:04;95220.97;;;2.29;51.92
74921;BME280;63483;47.384;8.860;2024-02-14T09:12:30;95224.06;;;2.57;48.58
74921;BME280;63483;47.384;8.860;2024-02-14T09:14:57;95233.50;;;2.81;48.61
74921;BME280;63483;47.384;8.860;2024-02-14T09:17:22;95234.44;;;3.02;46.97
74921;BME280;63483;47.384;8.860;2024-02-14T09:19:48;95237.94;;;3.24;42.66
74921;BME280;63483;47.384;8.860;2024-02-14T09:22:13;95245.25;;;3.42;41.55
74921;BME280;63483;47.384;8.860;2024-02-14T09:24:43;95240.84;;;3.65;43.29
74921;BME280;63483;47.384;8.860;2024-02-14T09:27:08;95241.00;;;3.84;41.50
74921;BME280;63483;47.384;8.860;2024-02-14T09:29:34;95249.06;;;4.02;40.14
74921;BME280;63483;47.384;8.860;2024-02-14T09:32:02;95255.16;;;4.13;37.66
74921;BME280;63483;47.384;8.860;2024-02-14T09:34:27;95254.97;;;4.25;37.66
74921;BME280;63483;47.384;8.860;2024-02-14T09:36:52;95254.81;;;4.38;36.88
74921;BME280;63483;47.384;8.860;2024-02-14T09:39:18;95254.72;;;4.50;37.52
74921;BME280;63483;47.384;8.860;2024-02-14T09:41:46;95243.72;;;4.57;36.53
74921;BME280;63483;47.384;8.860;2024-02-14T09:44:16;95253.47;;;4.65;37.26
74921;BME280;63483;47.384;8.860;2024-02-14T09:46:42;95249.28;;;4.74;36.57
74921;BME280;63483;47.384;8.860;2024-02-14T09:49:08;95252.34;;;4.89;35.35
74921;BME280;63483;47.384;8.860;2024-02-14T09:51:34;95249.28;;;4.95;36.48
74921;BME280;63483;47.384;8.860;2024-02-14T09:54:00;95246.81;;;5.03;34.77
74921;BME280;63483;47.384;8.860;2024-02-14T09:56:28;95246.75;;;5.15;35.28
74921;BME280;63483;47.384;8.860;2024-02-14T09:58:54;95243.63;;;5.21;33.92
74921;BME280;63483;47.384;8.860;2024-02-14T10:01:23;95234.75;;;5.33;33.26
74921;BME280;63483;47.384;8.860;2024-02-14T10:03:50;95245.19;;;5.43;33.51
74921;BME280;63483;47.384;8.860;2024-02-14T10:06:17;95246.44;;;5.48;33.38
74921;BME280;63483;47.384;8.860;2024-02-14T10:08:42;95243.28;;;5.55;31.50
74921;BME280;63483;47.384;8.860;2024-02-14T10:11:08;95235.41;;;5.66;31.76
74921;BME280;63483;47.384;8.860;2024-02-14T10:13:33;95241.56;;;5.75;32.87
74921;BME280;63483;47.384;8.860;2024-02-14T10:16:00;95240.59;;;5.86;33.05
74921;BME280;63483;47.384;8.860;2024-02-14T10:18:26;95245.25;;;5.92;32.07
74921;BME280;63483;47.384;8.860;2024-02-14T10:20:58;95252.09;;;6.03;32.79
74921;BME280;63483;47.384;8.860;2024-02-14T10:23:23;95240.91;;;6.12;32.96
74921;BME280;63483;47.384;8.860;2024-02-14T10:25:56;95239.53;;;6.17;31.76
74921;BME280;63483;47.384;8.860;2024-02-14T10:28:22;95240.88;;;6.22;32.35
74921;BME280;63483;47.384;8.860;2024-02-14T10:30:48;95242.91;;;6.28;31.73
74921;BME280;63483;47.384;8.860;2024-02-14T10:33:17;95245.13;;;6.32;32.57
74921;BME280;63483;47.384;8.860;2024-02-14T10:35:44;95254.31;;;6.37;32.13
74921;BME280;63483;47.384;8.860;2024-02-14T10:38:11;95254.59;;;6.43;31.70
74921;BME280;63483;47.384;8.860;2024-02-14T10:40:37;95252.25;;;6.50;32.02
74921;BME280;63483;47.384;8.860;2024-02-14T10:43:08;95253.75;;;6.52;31.67
74921;BME280;63483;47.384;8.860;2024-02-14T10:45:38;95258.66;;;6.56;30.69
74921;BME280;63483;47.384;8.860;2024-02-14T10:48:05;95254.84;;;6.60;31.85
74921;BME280;63483;47.384;8.860;2024-02-14T10:50:34;95266.47;;;6.65;31.81
74921;BME280;63483;47.384;8.860;2024-02-14T10:53:05;95260.84;;;6.70;31.03
74921;BME280;63483;47.384;8.860;2024-02-14T10:55:33;95263.03;;;6.75;31.35
74921;BME280;63483;47.384;8.860;2024-02-14T10:57:59;95265.47;;;6.76;30.25
74921;BME280;63483;47.384;8.860;2024-02-14T11:00:24;95251.75;;;6.84;30.38
74921;BME280;63483;47.384;8.860;2024-02-14T11:02:50;95254.78;;;6.89;31.01
74921;BME280;63483;47.384;8.860;2024-02-14T11:05:19;95255.00;;;6.96;30.44
74921;BME280;63483;47.384;8.860;2024-02-14T11:07:45;95257.22;;;6.91;30.03
74921;BME280;63483;47.384;8.860;2024-02-14T11:10:16;95246.66;;;7.02;29.92
74921;BME280;63483;47.384;8.860;2024-02-14T11:12:41;95257.72;;;7.04;31.07
74921;BME280;63483;47.384;8.860;2024-02-14T11:15:23;95251.66;;;7.13;30.91
74921;BME280;63483;47.384;8.860;2024-02-14T11:17:50;95254.66;;;7.18;30.24
74921;BME280;63483;47.384;8.860;2024-02-14T11:20:31;95260.41;;;7.22;30.73
74921;BME280;63483;47.384;8.860;2024-02-14T11:22:57;95253.78;;;7.28;30.03
74921;BME280;63483;47.384;8.860;2024-02-14T11:25:29;95249.94;;;7.32;30.45
74921;BME280;63483;47.384;8.860;2024-02-14T11:28:00;95246.75;;;7.38;30.52
74921;BME280;63483;47.384;8.860;2024-02-14T11:30:33;95243.19;;;7.39;30.02
74921;BME280;63483;47.384;8.860;2024-02-14T11:33:19;95253.03;;;7.45;30.83
74921;BME280;63483;47.384;8.860;2024-02-14T11:35:47;95263.97;;;7.49;29.85
74921;BME280;63483;47.384;8.860;2024-02-14T11:38:14;95247.38;;;7.50;29.67
74921;BME280;63483;47.384;8.860;2024-02-14T11:40:39;95244.63;;;7.51;29.59
74921;BME280;63483;47.384;8.860;2024-02-14T11:43:19;95232.09;;;7.55;29.46
74921;BME280;63483;47.384;8.860;2024-02-14T11:45:46;95239.25;;;7.63;30.27
74921;BME280;63483;47.384;8.860;2024-02-14T11:48:15;95239.31;;;7.71;32.44
74921;BME280;63483;47.384;8.860;2024-02-14T11:50:43;95245.06;;;7.74;31.31
74921;BME280;63483;47.384;8.860;2024-02-14T11:53:10;95235.66;;;7.82;29.83
74921;BME280;63483;47.384;8.860;2024-02-14T11:55:37;95233.91;;;7.82;30.31
74921;BME280;63483;47.384;8.860;2024-02-14T11:58:14;95220.03;;;7.82;29.63
74921;BME280;63483;47.384;8.860;2024-02-14T12:00:42;95235.50;;;7.83;30.30
74921;BME280;63483;47.384;8.860;2024-02-14T12:03:12;95240.38;;;7.78;28.97
74921;BME280;63483;47.384;8.860;2024-02-14T12:05:38;95234.09;;;7.89;29.46
74921;BME280;63483;47.384;8.860;2024-02-14T12:08:05;95226.53;;;7.96;30.01
74921;BME280;63483;47.384;8.860;2024-02-14T12:10:31;95240.06;;;7.99;29.85
74921;BME280;63483;47.384;8.860;2024-02-14T12:12:57;95232.78;;;8.03;30.28
74921;BME280;63483;47.384;8.860;2024-02-14T12:15:26;95244.03;;;8.03;30.96
74921;BME280;63483;47.384;8.860;2024-02-14T12:17:51;95246.56;;;8.13;30.09
74921;BME280;63483;47.384;8.860;2024-02-14T12:20:21;95238.16;;;8.19;30.16
74921;BME280;63483;47.384;8.860;2024-02-14T12:22:50;95241.41;;;8.21;30.86
74921;BME280;63483;47.384;8.860;2024-02-14T12:25:15;95240.75;;;8.19;30.56
74921;BME280;63483;47.384;8.860;2024-02-14T12:27:41;95243.25;;;8.29;30.02
74921;BME280;63483;47.384;8.860;2024-02-14T12:30:07;95238.03;;;8.29;30.68
74921;BME280;63483;47.384;8.860;2024-02-14T12:32:32;95242.47;;;8.28;30.74
74921;BME280;63483;47.384;8.860;2024-02-14T12:34:59;95239.53;;;8.32;31.24
74921;BME280;63483;47.384;8.860;2024-02-14T12:37:25;95239.38;;;8.33;31.56
74921;BME280;63483;47.384;8.860;2024-02-14T12:39:50;95233.34;;;8.33;30.80
74921;BME280;63483;47.384;8.860;2024-02-14T12:42:16;95233.06;;;8.36;31.18
74921;BME280;63483;47.384;8.860;2024-02-14T12:44:43;95226.56;;;8.40;31.13
74921;BME280;63483;47.384;8.860;2024-02-14T12:47:08;95232.25;;;8.35;31.46
74921;BME280;63483;47.384;8.860;2024-02-14T12:49:34;95225.88;;;8.38;31.00
74921;BME280;63483;47.384;8.860;2024-02-14T12:51:59;95227.84;;;8.36;31.27
74921;BME280;63483;47.384;8.860;2024-02-14T12:54:25;95225.69;;;8.31;31.47
74921;BME280;63483;47.384;8.860;2024-02-14T12:56:52;95226.41;;;8.41;31.46
74921;BME280;63483;47.384;8.860;2024-02-14T12:59:18;95219.78;;;8.47;31.27
74921;BME280;63483;47.384;8.860;2024-02-14T13:01:44;95220.34;;;8.41;31.66